createdAt,value
2023-05-10T00:00:59.366Z,4.05
2023-05-10T00:06:02.813Z,4.28
2023-05-10T00:11:07.479Z,4.13
2023-05-10T00:16:13.156Z,4.05
2023-05-10T00:26:21.252Z,4.07
2023-05-10T00:31:28.534Z,4.15
2023-05-10T00:36:32.325Z,4.30
2023-05-10T00:41:37.114Z,3.97
2023-05-10T00:46:42.882Z,3.60
2023-05-10T00:51:46.877Z,3.63
2023-05-10T00:56:52.009Z,3.72
2023-05-10T01:01:55.410Z,4.35
2023-05-10T01:07:00.481Z,4.22
2023-05-10T01:12:07.974Z,4.18
2023-05-10T01:17:13.227Z,4.60
2023-05-10T01:22:43.898Z,4.40
2023-05-10T01:28:33.047Z,4.53
2023-05-10T01:33:44.651Z,4.50
2023-05-10T01:38:52.666Z,4.75
2023-05-10T01:44:02.201Z,4.57
2023-05-10T01:49:12.074Z,4.40
2023-05-10T01:54:20.353Z,3.92
2023-05-10T01:59:27.567Z,4.18
2023-05-10T02:04:33.266Z,3.90
2023-05-10T02:09:37.916Z,3.80
2023-05-10T02:14:43.196Z,3.97
2023-05-10T02:24:52.216Z,3.35
2023-05-10T02:29:56.009Z,4.05
2023-05-10T02:35:03.928Z,4.32
2023-05-10T02:40:09.625Z,3.78
2023-05-10T02:45:21.036Z,3.88
2023-05-10T02:50:28.951Z,3.90
2023-05-10T02:55:36.557Z,4.05
2023-05-10T03:00:40.939Z,3.85
2023-05-10T03:05:46.112Z,4.07
2023-05-10T03:11:00.368Z,4.40
2023-05-10T03:16:09.396Z,4.20
2023-05-10T03:21:17.300Z,3.95
2023-05-10T03:26:27.096Z,4.38
2023-05-10T03:31:39.064Z,3.65
2023-05-10T03:36:43.961Z,4.10
2023-05-10T03:41:47.753Z,3.38
2023-05-10T03:46:51.272Z,4.60
2023-05-10T03:51:56.062Z,4.28
2023-05-10T03:56:59.413Z,4.20
2023-05-10T04:02:03.838Z,3.30
2023-05-10T04:07:10.653Z,4.22
2023-05-10T04:12:14.142Z,2.95
2023-05-10T04:17:17.592Z,4.07
2023-05-10T04:22:22.312Z,3.50
2023-05-10T04:27:25.664Z,4.00
2023-05-10T04:32:29.285Z,3.75
2023-05-10T04:37:34.107Z,3.15
2023-05-10T04:42:37.532Z,4.13
2023-05-10T04:47:40.762Z,3.47
2023-05-10T04:52:45.992Z,3.28
2023-05-10T04:57:49.504Z,3.33
2023-05-10T05:02:52.899Z,3.28
2023-05-10T05:07:57.689Z,3.50
2023-05-10T05:13:01.122Z,4.13
2023-05-10T05:18:05.152Z,3.00
2023-05-10T05:23:10.170Z,3.60
2023-05-10T05:28:13.723Z,3.10
2023-05-10T05:33:17.120Z,2.95
2023-05-10T05:38:21.927Z,3.03
2023-05-10T05:43:26.164Z,2.95
2023-05-10T05:48:31.159Z,3.10
2023-05-10T05:53:35.807Z,2.58
2023-05-10T05:58:39.147Z,2.83
2023-05-10T06:03:42.610Z,3.13
2023-05-10T06:08:47.414Z,2.92
2023-05-10T06:13:51.300Z,3.00
2023-05-10T06:18:54.585Z,2.50
2023-05-10T06:23:59.308Z,3.28
2023-05-10T06:29:03.475Z,2.60
2023-05-10T06:34:08.969Z,2.50
2023-05-10T06:39:13.727Z,2.35
2023-05-10T06:44:17.187Z,2.60
2023-05-10T06:49:20.662Z,2.30
2023-05-10T06:54:25.616Z,2.55
2023-05-10T07:04:32.830Z,2.35
2023-05-10T07:09:37.463Z,1.92
2023-05-10T07:14:40.957Z,2.45
2023-05-10T07:19:44.358Z,2.67
2023-05-10T07:24:49.119Z,1.95
2023-05-10T07:29:53.660Z,3.38
2023-05-10T07:34:57.042Z,2.20
2023-05-10T07:40:01.766Z,1.92
2023-05-10T07:45:07.062Z,1.92
2023-05-10T07:50:10.771Z,1.98
2023-05-10T07:55:15.874Z,2.05
2023-05-10T08:00:20.980Z,2.22
2023-05-10T08:05:24.699Z,2.50
2023-05-10T08:10:29.626Z,2.15
2023-05-10T08:15:33.006Z,2.60
2023-05-10T08:20:37.034Z,2.25
2023-05-10T08:25:41.973Z,2.05
2023-05-10T08:30:45.364Z,2.05
2023-05-10T08:35:50.001Z,1.90
2023-05-10T08:40:59.946Z,2.10
2023-05-10T08:46:06.302Z,2.40
2023-05-10T08:51:12.552Z,2.13
2023-05-10T08:56:18.900Z,2.47
2023-05-10T09:01:23.465Z,2.53
2023-05-10T09:06:27.090Z,2.65
2023-05-10T09:11:32.553Z,2.20
2023-05-10T09:16:36.855Z,2.03
2023-05-10T09:21:40.469Z,2.25
2023-05-10T09:26:52.251Z,2.93
2023-05-10T09:31:56.318Z,2.00
2023-05-10T09:37:05.386Z,2.17
2023-05-10T09:42:10.932Z,2.13
2023-05-10T09:47:19.842Z,2.42
2023-05-10T09:52:23.314Z,2.22
2023-05-10T09:57:28.190Z,1.85
2023-05-10T10:02:32.564Z,2.10
2023-05-10T10:07:36.899Z,1.80
2023-05-10T10:17:47.618Z,2.15
2023-05-10T10:23:11.394Z,2.40
2023-05-10T10:28:28.808Z,2.17
2023-05-10T10:33:41.355Z,2.58
2023-05-10T10:39:00.761Z,2.17
2023-05-10T10:44:40.260Z,2.20
2023-05-10T10:49:49.009Z,2.30
2023-05-10T10:54:53.693Z,1.95
2023-05-10T11:00:27.455Z,1.70
2023-05-10T11:05:42.549Z,1.80
2023-05-10T11:11:12.550Z,2.40
2023-05-10T11:16:19.783Z,2.20
2023-05-10T11:21:23.682Z,2.30
2023-05-10T11:26:31.705Z,2.07
2023-05-10T11:31:42.840Z,1.88
2023-05-10T11:36:52.827Z,2.20
2023-05-10T11:41:56.527Z,2.17
2023-05-10T11:47:02.154Z,1.70
2023-05-10T11:52:07.175Z,2.65
2023-05-10T11:57:10.715Z,1.95
2023-05-10T12:02:16.060Z,2.23
2023-05-10T12:07:19.561Z,1.98
2023-05-10T12:12:23.426Z,1.98
2023-05-10T12:17:31.058Z,2.07
2023-05-10T12:22:35.891Z,2.00
2023-05-10T12:27:39.302Z,2.00
2023-05-10T12:32:45.675Z,2.03
2023-05-10T12:37:49.317Z,2.65
2023-05-10T12:42:53.567Z,2.20
2023-05-10T12:47:58.610Z,2.72
2023-05-10T12:53:02.527Z,2.10
2023-05-10T12:58:06.426Z,1.83
2023-05-10T13:03:11.575Z,2.28
2023-05-10T13:08:15.174Z,1.65
2023-05-10T13:13:19.269Z,2.27
2023-05-10T13:18:25.153Z,2.17
2023-05-10T13:23:28.619Z,2.33
2023-05-10T13:28:32.530Z,1.90
2023-05-10T13:33:37.367Z,2.55
2023-05-10T13:38:40.963Z,1.75
2023-05-10T13:43:44.422Z,2.03
2023-05-10T13:48:49.135Z,1.70
2023-05-10T13:53:53.181Z,2.20
2023-05-10T14:04:02.549Z,2.03
2023-05-10T14:09:06.126Z,2.05
2023-05-10T14:14:10.020Z,1.80
2023-05-10T14:19:14.750Z,2.10
2023-05-10T14:24:18.340Z,2.22
2023-05-10T14:29:21.735Z,2.10
2023-05-10T14:34:26.423Z,1.90
2023-05-10T14:39:31.171Z,2.00
2023-05-10T14:44:34.543Z,2.60
2023-05-10T14:49:39.276Z,2.00
2023-05-10T14:59:45.829Z,2.38
2023-05-10T15:04:51.815Z,2.57
2023-05-10T15:09:55.699Z,1.95
2023-05-10T15:14:59.007Z,2.13
2023-05-10T15:20:05.045Z,2.08
2023-05-10T15:25:09.031Z,1.85
2023-05-10T15:30:13.238Z,2.40
2023-05-10T15:35:18.697Z,2.85
2023-05-10T15:40:22.339Z,2.03
2023-05-10T15:45:25.654Z,2.05
2023-05-10T15:50:30.264Z,1.77
2023-05-10T15:55:35.356Z,2.42
2023-05-10T16:00:39.161Z,2.15
2023-05-10T16:05:43.772Z,2.00
2023-05-10T16:10:47.026Z,1.88
2023-05-10T16:15:50.609Z,3.28
2023-05-10T16:20:55.216Z,3.53
2023-05-10T16:31:02.463Z,3.60
2023-05-10T16:36:07.526Z,3.30
2023-05-10T16:41:11.264Z,3.40
2023-05-10T16:46:15.338Z,3.60
2023-05-10T16:51:19.982Z,3.63
2023-05-10T17:01:28.054Z,3.80
2023-05-10T17:06:33.209Z,3.60
2023-05-10T17:11:36.502Z,4.35
2023-05-10T17:16:40.020Z,3.88
2023-05-10T17:21:44.837Z,3.33
2023-05-10T17:26:48.774Z,3.65
2023-05-10T17:31:52.146Z,3.70
2023-05-10T17:36:58.081Z,4.35
2023-05-10T17:42:01.424Z,3.70
2023-05-10T17:47:04.790Z,3.75
2023-05-10T17:52:09.635Z,3.47
2023-05-10T17:57:13.656Z,3.88
2023-05-10T18:02:17.010Z,3.88
2023-05-10T18:07:23.752Z,4.00
2023-05-10T18:12:27.106Z,4.88
2023-05-10T18:17:31.135Z,4.20
2023-05-10T18:22:36.433Z,3.67
2023-05-10T18:27:39.942Z,3.70
2023-05-10T18:32:43.455Z,4.40
2023-05-10T18:37:48.674Z,4.68
2023-05-10T18:42:52.479Z,4.13
2023-05-10T18:47:55.895Z,4.22
2023-05-10T18:53:00.659Z,4.10
2023-05-10T18:58:04.067Z,4.40
2023-05-10T19:03:07.431Z,4.50
2023-05-10T19:08:12.744Z,4.15
2023-05-10T19:18:20.721Z,3.90
2023-05-10T19:23:25.580Z,5.00
2023-05-10T19:28:29.976Z,4.50
2023-05-10T19:33:33.421Z,4.80
2023-05-10T19:38:38.314Z,4.68
2023-05-10T19:43:42.378Z,5.07
2023-05-10T19:48:46.790Z,5.13
2023-05-10T19:53:53.077Z,5.05
2023-05-10T19:58:56.402Z,5.47
2023-05-10T20:03:59.737Z,5.68
2023-05-10T20:09:04.974Z,5.55
2023-05-10T20:19:12.947Z,5.45
2023-05-10T20:24:18.385Z,5.10
2023-05-10T20:34:24.956Z,5.90
2023-05-10T20:39:30.054Z,6.50
2023-05-10T20:44:33.421Z,6.25
2023-05-10T20:49:38.033Z,6.45
2023-05-10T20:54:42.692Z,6.57
2023-05-10T20:59:46.007Z,6.32
2023-05-10T21:04:49.463Z,6.50
2023-05-10T21:09:54.199Z,6.65
2023-05-10T21:14:57.502Z,7.03
2023-05-10T21:20:00.946Z,6.63
2023-05-10T21:25:07.398Z,6.80
2023-05-10T21:30:11.948Z,6.70
2023-05-10T21:35:15.893Z,6.97
2023-05-10T21:40:21.014Z,6.95
2023-05-10T21:50:28.467Z,6.50
2023-05-10T21:55:34.375Z,6.97
2023-05-10T22:00:37.915Z,6.13
2023-05-10T22:05:42.188Z,7.60
2023-05-10T22:10:46.841Z,6.55
2023-05-10T22:15:51.668Z,7.35
2023-05-10T22:20:55.308Z,6.30
2023-05-10T22:26:02.618Z,7.07
2023-05-10T22:31:10.145Z,6.72
2023-05-10T22:36:15.166Z,6.57
2023-05-10T22:41:19.909Z,7.15
2023-05-10T22:46:23.491Z,6.70
2023-05-10T22:51:27.241Z,6.47
2023-05-10T22:56:32.295Z,6.90
2023-05-10T23:01:35.769Z,6.68
2023-05-10T23:06:39.645Z,6.53
2023-05-10T23:11:44.760Z,7.28
2023-05-10T23:16:48.061Z,6.80
2023-05-10T23:21:51.445Z,6.35
2023-05-10T23:26:56.108Z,7.30
2023-05-10T23:37:03.568Z,6.55
2023-05-10T23:42:09.063Z,6.85
2023-05-10T23:47:12.510Z,7.00
2023-05-10T23:52:16.413Z,6.18
2023-05-10T23:57:21.952Z,6.30
